Terminal Aerodrome Forecast
Issued by NWS Charleston, WV

Current Version | Previous Version | Graphics & Text | Print | Product List | Glossary On
Versions: 1 2 3 4 5 6 7 8 9 10 11 12 13 14 15 16 17 18 19 20 21 22 23 24
000
FTUS41 KRLX 241142
TAFEKN
TAF
KEKN 241142Z 2412/2512 00000KT P6SM SCT250
     FM241400 26006KT P6SM FEW040
     FM242300 00000KT P6SM SCT040
     FM250500 00000KT P6SM BKN250
     FM250900 19005KT 6SM BR BKN250=

USA.gov is the U.S. government's official web portal to all federal, state and local government web resources and services.